« Back
NWS Peachtree City, Ga » Text Product » ATL Terminal Aerodrome Forecast


Printer-friendly Version
Current Version              Previous Versions:   1  2  3  4  5  6  7  8  9  

Terminal Aerodrome Forecast

438
FTUS42 KFFC 251541 AAC
TAFATL
TAF AMD
KATL 251541Z 2516/2618 13009KT P6SM BKN025
     FM251700 13009KT P6SM VCSH BKN035
     FM252100 14009KT 6SM -SHRA BKN035
      TEMPO 2522/2524 3SM -TSRA BKN012CB
     FM260100 14007KT P6SM SCT025 BKN040
     FM260800 15006KT P6SM BKN009
     FM261500 16008KT P6SM BKN030=



USA.gov is the U.S. government's official web portal to all federal, state and local government web resources and services.